sensor_id;sensor_type;location;lat;lon;timestamp;temperature;humidity
21189;DHT22;39071;52.420;20.896;2022-11-20T00:00:48;-1.30;33.00
21189;DHT22;39071;52.420;20.896;2022-11-20T00:03:14;-1.30;33.70
21189;DHT22;39071;52.420;20.896;2022-11-20T00:05:39;-1.30;37.60
21189;DHT22;39071;52.420;20.896;2022-11-20T00:08:05;-1.20;40.20
21189;DHT22;39071;52.420;20.896;2022-11-20T00:10:31;-1.20;36.80
21189;DHT22;39071;52.420;20.896;2022-11-20T00:13:00;-1.10;38.20
21189;DHT22;39071;52.420;20.896;2022-11-20T00:15:26;-1.00;37.90
21189;DHT22;39071;52.420;20.896;2022-11-20T00:17:51;-1.00;36.60
21189;DHT22;39071;52.420;20.896;2022-11-20T00:20:17;-0.80;37.00
21189;DHT22;39071;52.420;20.896;2022-11-20T00:22:43;-0.80;33.10
21189;DHT22;39071;52.420;20.896;2022-11-20T00:25:08;-0.80;30.50
21189;DHT22;39071;52.420;20.896;2022-11-20T00:27:34;-0.80;28.80
21189;DHT22;39071;52.420;20.896;2022-11-20T00:30:00;-0.50;28.40
21189;DHT22;39071;52.420;20.896;2022-11-20T00:32:26;-0.70;25.90
21189;DHT22;39071;52.420;20.896;2022-11-20T00:34:51;-0.80;25.40
21189;DHT22;39071;52.420;20.896;2022-11-20T00:37:17;-0.80;25.10
21189;DHT22;39071;52.420;20.896;2022-11-20T00:39:43;-0.90;24.20
21189;DHT22;39071;52.420;20.896;2022-11-20T00:42:08;-0.80;24.80
21189;DHT22;39071;52.420;20.896;2022-11-20T00:44:34;-0.80;24.80
21189;DHT22;39071;52.420;20.896;2022-11-20T00:46:59;-0.70;25.90
21189;DHT22;39071;52.420;20.896;2022-11-20T00:49:25;-0.80;23.60
21189;DHT22;39071;52.420;20.896;2022-11-20T00:51:51;-0.80;24.70
21189;DHT22;39071;52.420;20.896;2022-11-20T00:54:16;-0.70;27.40
21189;DHT22;39071;52.420;20.896;2022-11-20T00:56:42;-0.80;24.30
21189;DHT22;39071;52.420;20.896;2022-11-20T00:59:09;-0.90;23.30
21189;DHT22;39071;52.420;20.896;2022-11-20T01:01:36;-0.90;24.80
21189;DHT22;39071;52.420;20.896;2022-11-20T01:04:02;-0.90;26.70
21189;DHT22;39071;52.420;20.896;2022-11-20T01:06:36;-0.90;26.60
21189;DHT22;39071;52.420;20.896;2022-11-20T01:09:12;-1.00;24.20
21189;DHT22;39071;52.420;20.896;2022-11-20T01:11:43;-1.10;26.70
21189;DHT22;39071;52.420;20.896;2022-11-20T01:14:19;-1.10;26.70
21189;DHT22;39071;52.420;20.896;2022-11-20T01:16:49;-1.00;28.40
21189;DHT22;39071;52.420;20.896;2022-11-20T01:19:18;-1.00;26.30
21189;DHT22;39071;52.420;20.896;2022-11-20T01:21:47;-1.00;26.90
21189;DHT22;39071;52.420;20.896;2022-11-20T01:24:15;-0.90;28.70
21189;DHT22;39071;52.420;20.896;2022-11-20T01:26:42;-0.80;28.00
21189;DHT22;39071;52.420;20.896;2022-11-20T01:29:17;-0.80;26.20
21189;DHT22;39071;52.420;20.896;2022-11-20T01:31:43;-0.70;26.10
21189;DHT22;39071;52.420;20.896;2022-11-20T01:34:11;-0.70;24.30
21189;DHT22;39071;52.420;20.896;2022-11-20T01:36:38;-0.70;22.30
21189;DHT22;39071;52.420;20.896;2022-11-20T01:39:07;-0.60;21.50
21189;DHT22;39071;52.420;20.896;2022-11-20T01:41:33;-0.60;19.70
21189;DHT22;39071;52.420;20.896;2022-11-20T01:44:20;-0.60;20.00
21189;DHT22;39071;52.420;20.896;2022-11-20T01:46:56;0.10;19.20
21189;DHT22;39071;52.420;20.896;2022-11-20T01:49:54;-0.50;18.90
21189;DHT22;39071;52.420;20.896;2022-11-20T01:52:38;-0.50;21.30
21189;DHT22;39071;52.420;20.896;2022-11-20T01:55:21;-0.40;21.40
21189;DHT22;39071;52.420;20.896;2022-11-20T01:57:48;-0.50;20.70
21189;DHT22;39071;52.420;20.896;2022-11-20T02:00:17;-0.40;22.30
21189;DHT22;39071;52.420;20.896;2022-11-20T02:02:51;-0.40;20.10
21189;DHT22;39071;52.420;20.896;2022-11-20T02:05:24;-0.40;20.80
21189;DHT22;39071;52.420;20.896;2022-11-20T02:07:51;-0.50;18.80
21189;DHT22;39071;52.420;20.896;2022-11-20T02:10:18;-0.50;20.30
21189;DHT22;39071;52.420;20.896;2022-11-20T02:12:44;-0.50;20.50
21189;DHT22;39071;52.420;20.896;2022-11-20T02:15:28;-0.50;18.60
21189;DHT22;39071;52.420;20.896;2022-11-20T02:17:54;-0.40;19.60
21189;DHT22;39071;52.420;20.896;2022-11-20T02:20:20;-0.40;19.40
21189;DHT22;39071;52.420;20.896;2022-11-20T02:22:54;-0.50;15.50
21189;DHT22;39071;52.420;20.896;2022-11-20T02:25:21;-0.50;17.40
21189;DHT22;39071;52.420;20.896;2022-11-20T02:27:49;-0.40;17.90
21189;DHT22;39071;52.420;20.896;2022-11-20T02:30:16;-0.40;18.30
21189;DHT22;39071;52.420;20.896;2022-11-20T02:32:42;-0.30;35.60
21189;DHT22;39071;52.420;20.896;2022-11-20T02:37:52;-0.30;16.90
21189;DHT22;39071;52.420;20.896;2022-11-20T02:40:18;-0.20;15.60
21189;DHT22;39071;52.420;20.896;2022-11-20T02:42:44;-0.20;16.30
21189;DHT22;39071;52.420;20.896;2022-11-20T02:45:10;-0.40;12.10
21189;DHT22;39071;52.420;20.896;2022-11-20T02:47:37;-0.40;10.60
21189;DHT22;39071;52.420;20.896;2022-11-20T02:50:04;-0.30;12.60
21189;DHT22;39071;52.420;20.896;2022-11-20T02:52:30;-0.40;11.10
21189;DHT22;39071;52.420;20.896;2022-11-20T02:54:56;-0.40;12.20
21189;DHT22;39071;52.420;20.896;2022-11-20T02:57:22;-0.40;13.50
21189;DHT22;39071;52.420;20.896;2022-11-20T02:59:48;-0.10;14.90
21189;DHT22;39071;52.420;20.896;2022-11-20T03:02:13;-0.30;13.40
21189;DHT22;39071;52.420;20.896;2022-11-20T03:04:39;-0.40;13.30
21189;DHT22;39071;52.420;20.896;2022-11-20T03:07:05;-0.30;12.90
21189;DHT22;39071;52.420;20.896;2022-11-20T03:09:30;-0.30;12.20
21189;DHT22;39071;52.420;20.896;2022-11-20T03:11:56;-0.30;11.30
21189;DHT22;39071;52.420;20.896;2022-11-20T03:14:22;1.50;11.10
21189;DHT22;39071;52.420;20.896;2022-11-20T03:16:47;-0.30;9.10
21189;DHT22;39071;52.420;20.896;2022-11-20T03:19:13;-0.30;9.30
21189;DHT22;39071;52.420;20.896;2022-11-20T03:21:39;-0.30;10.20
21189;DHT22;39071;52.420;20.896;2022-11-20T03:24:05;-0.20;9.90
21189;DHT22;39071;52.420;20.896;2022-11-20T03:26:31;-0.40;9.30
21189;DHT22;39071;52.420;20.896;2022-11-20T03:28:59;-0.30;10.90
21189;DHT22;39071;52.420;20.896;2022-11-20T03:31:34;-0.30;10.80
21189;DHT22;39071;52.420;20.896;2022-11-20T03:34:00;-0.30;10.40
21189;DHT22;39071;52.420;20.896;2022-11-20T03:36:27;-0.30;9.70
21189;DHT22;39071;52.420;20.896;2022-11-20T03:38:54;-0.30;7.90
21189;DHT22;39071;52.420;20.896;2022-11-20T03:41:26;-0.30;8.30
21189;DHT22;39071;52.420;20.896;2022-11-20T03:44:00;-0.30;8.40
21189;DHT22;39071;52.420;20.896;2022-11-20T03:46:27;-0.30;7.80
21189;DHT22;39071;52.420;20.896;2022-11-20T03:48:54;-0.30;8.50
21189;DHT22;39071;52.420;20.896;2022-11-20T03:51:24;-0.50;7.50
21189;DHT22;39071;52.420;20.896;2022-11-20T03:53:52;-0.40;8.30
21189;DHT22;39071;52.420;20.896;2022-11-20T03:56:22;-0.30;9.50
21189;DHT22;39071;52.420;20.896;2022-11-20T03:58:48;-0.40;8.30
21189;DHT22;39071;52.420;20.896;2022-11-20T04:01:28;-0.40;10.70
21189;DHT22;39071;52.420;20.896;2022-11-20T04:03:55;-0.40;11.10
21189;DHT22;39071;52.420;20.896;2022-11-20T04:06:24;-0.50;9.30
21189;DHT22;39071;52.420;20.896;2022-11-20T04:08:50;-0.40;11.80
21189;DHT22;39071;52.420;20.896;2022-11-20T04:11:23;-0.50;11.90
21189;DHT22;39071;52.420;20.896;2022-11-20T04:13:51;-0.50;12.80
21189;DHT22;39071;52.420;20.896;2022-11-20T04:16:18;-0.50;13.60
21189;DHT22;39071;52.420;20.896;2022-11-20T04:18:44;-0.60;14.40
21189;DHT22;39071;52.420;20.896;2022-11-20T04:21:10;-0.70;14.80
21189;DHT22;39071;52.420;20.896;2022-11-20T04:23:37;-0.60;17.00
21189;DHT22;39071;52.420;20.896;2022-11-20T04:26:08;-0.50;17.10
21189;DHT22;39071;52.420;20.896;2022-11-20T04:28:35;-0.90;16.00
21189;DHT22;39071;52.420;20.896;2022-11-20T04:31:25;-0.90;19.10
21189;DHT22;39071;52.420;20.896;2022-11-20T04:33:51;-0.80;20.50
21189;DHT22;39071;52.420;20.896;2022-11-20T04:36:23;-0.80;21.20
21189;DHT22;39071;52.420;20.896;2022-11-20T04:38:57;-0.70;22.00
21189;DHT22;39071;52.420;20.896;2022-11-20T04:41:25;-0.70;21.80
21189;DHT22;39071;52.420;20.896;2022-11-20T04:43:54;-0.60;22.00
21189;DHT22;39071;52.420;20.896;2022-11-20T04:46:25;-0.60;42.40
21189;DHT22;39071;52.420;20.896;2022-11-20T04:48:51;-0.60;21.40
21189;DHT22;39071;52.420;20.896;2022-11-20T04:51:17;-0.90;20.90
21189;DHT22;39071;52.420;20.896;2022-11-20T04:53:42;-0.90;23.00
21189;DHT22;39071;52.420;20.896;2022-11-20T04:56:10;1.10;25.80
21189;DHT22;39071;52.420;20.896;2022-11-20T04:58:37;-0.70;25.30
21189;DHT22;39071;52.420;20.896;2022-11-20T05:03:31;-0.80;25.30
21189;DHT22;39071;52.420;20.896;2022-11-20T05:06:00;-0.70;26.50
21189;DHT22;39071;52.420;20.896;2022-11-20T05:08:26;-0.80;25.90
21189;DHT22;39071;52.420;20.896;2022-11-20T05:10:52;-0.80;29.00
21189;DHT22;39071;52.420;20.896;2022-11-20T05:13:18;-0.60;27.60
21189;DHT22;39071;52.420;20.896;2022-11-20T05:15:43;-0.80;30.80
21189;DHT22;39071;52.420;20.896;2022-11-20T05:18:09;-0.90;30.60
21189;DHT22;39071;52.420;20.896;2022-11-20T05:20:35;-0.90;34.60
21189;DHT22;39071;52.420;20.896;2022-11-20T05:23:02;-1.00;29.80
21189;DHT22;39071;52.420;20.896;2022-11-20T05:25:28;-0.90;33.20
21189;DHT22;39071;52.420;20.896;2022-11-20T05:27:54;-0.90;34.20
21189;DHT22;39071;52.420;20.896;2022-11-20T05:30:19;-1.00;34.80
21189;DHT22;39071;52.420;20.896;2022-11-20T05:32:45;-1.00;38.10
21189;DHT22;39071;52.420;20.896;2022-11-20T05:35:11;-1.00;37.30
21189;DHT22;39071;52.420;20.896;2022-11-20T05:37:36;-1.10;40.60
21189;DHT22;39071;52.420;20.896;2022-11-20T05:40:02;-1.10;41.90
21189;DHT22;39071;52.420;20.896;2022-11-20T05:42:30;-1.10;42.80
21189;DHT22;39071;52.420;20.896;2022-11-20T05:45:00;-1.10;45.00
21189;DHT22;39071;52.420;20.896;2022-11-20T05:47:27;-1.10;45.90
21189;DHT22;39071;52.420;20.896;2022-11-20T05:49:53;-1.10;71.00
21189;DHT22;39071;52.420;20.896;2022-11-20T05:52:19;-1.20;45.00
21189;DHT22;39071;52.420;20.896;2022-11-20T05:54:45;-1.20;46.80
21189;DHT22;39071;52.420;20.896;2022-11-20T05:57:11;-1.20;45.60
21189;DHT22;39071;52.420;20.896;2022-11-20T05:59:37;-1.20;46.90
21189;DHT22;39071;52.420;20.896;2022-11-20T06:02:02;-1.30;48.30
21189;DHT22;39071;52.420;20.896;2022-11-20T06:04:28;-1.30;50.90
21189;DHT22;39071;52.420;20.896;2022-11-20T06:06:54;-1.40;53.70
21189;DHT22;39071;52.420;20.896;2022-11-20T06:09:20;-1.40;55.80
21189;DHT22;39071;52.420;20.896;2022-11-20T06:11:45;-1.40;56.40
21189;DHT22;39071;52.420;20.896;2022-11-20T06:14:11;-1.50;59.10
21189;DHT22;39071;52.420;20.896;2022-11-20T06:16:37;-1.50;56.80
21189;DHT22;39071;52.420;20.896;2022-11-20T06:19:02;-1.60;58.30
21189;DHT22;39071;52.420;20.896;2022-11-20T06:21:28;-1.60;59.30
21189;DHT22;39071;52.420;20.896;2022-11-20T06:23:54;-1.60;60.40
21189;DHT22;39071;52.420;20.896;2022-11-20T06:26:25;-1.70;62.60
21189;DHT22;39071;52.420;20.896;2022-11-20T06:28:52;-1.70;66.90
21189;DHT22;39071;52.420;20.896;2022-11-20T06:31:20;-1.60;72.30
21189;DHT22;39071;52.420;20.896;2022-11-20T06:33:46;-1.60;81.80
21189;DHT22;39071;52.420;20.896;2022-11-20T06:36:14;-1.50;86.20
21189;DHT22;39071;52.420;20.896;2022-11-20T06:38:40;-1.50;88.60
21189;DHT22;39071;52.420;20.896;2022-11-20T06:41:07;-1.50;86.20
21189;DHT22;39071;52.420;20.896;2022-11-20T06:43:34;-1.40;89.00
21189;DHT22;39071;52.420;20.896;2022-11-20T06:45:59;-1.30;92.40
21189;DHT22;39071;52.420;20.896;2022-11-20T06:48:26;-1.20;90.90
21189;DHT22;39071;52.420;20.896;2022-11-20T06:50:52;-1.10;89.60
21189;DHT22;39071;52.420;20.896;2022-11-20T06:53:18;-1.00;85.60
21189;DHT22;39071;52.420;20.896;2022-11-20T06:55:45;-0.90;78.30
21189;DHT22;39071;52.420;20.896;2022-11-20T06:58:16;-0.90;76.70
21189;DHT22;39071;52.420;20.896;2022-11-20T07:00:42;-0.80;75.00
21189;DHT22;39071;52.420;20.896;2022-11-20T07:03:10;-0.70;70.00
21189;DHT22;39071;52.420;20.896;2022-11-20T07:05:36;-0.50;66.60
21189;DHT22;39071;52.420;20.896;2022-11-20T07:08:02;-0.50;86.50
21189;DHT22;39071;52.420;20.896;2022-11-20T07:10:28;-0.40;53.40
21189;DHT22;39071;52.420;20.896;2022-11-20T07:12:54;-0.40;58.00
21189;DHT22;39071;52.420;20.896;2022-11-20T07:15:22;-0.40;45.50
21189;DHT22;39071;52.420;20.896;2022-11-20T07:17:48;-0.30;41.70
21189;DHT22;39071;52.420;20.896;2022-11-20T07:20:14;-0.30;39.70
21189;DHT22;39071;52.420;20.896;2022-11-20T07:22:41;-0.20;39.40
21189;DHT22;39071;52.420;20.896;2022-11-20T07:25:08;-0.20;35.00
21189;DHT22;39071;52.420;20.896;2022-11-20T07:27:34;-0.20;30.90
21189;DHT22;39071;52.420;20.896;2022-11-20T07:30:00;-0.30;26.80
21189;DHT22;39071;52.420;20.896;2022-11-20T07:32:26;-0.40;28.70
21189;DHT22;39071;52.420;20.896;2022-11-20T07:34:52;-0.30;28.00
21189;DHT22;39071;52.420;20.896;2022-11-20T07:37:17;-0.30;25.80
21189;DHT22;39071;52.420;20.896;2022-11-20T07:39:43;-0.30;26.20
21189;DHT22;39071;52.420;20.896;2022-11-20T07:42:09;0.00;48.30
21189;DHT22;39071;52.420;20.896;2022-11-20T07:44:35;0.10;20.50
21189;DHT22;39071;52.420;20.896;2022-11-20T07:47:01;0.70;19.70
21189;DHT22;39071;52.420;20.896;2022-11-20T07:49:27;1.30;12.30
21189;DHT22;39071;52.420;20.896;2022-11-20T07:51:53;1.90;1.40
21189;DHT22;39071;52.420;20.896;2022-11-20T07:54:22;2.80;1.00
21189;DHT22;39071;52.420;20.896;2022-11-20T07:56:48;3.30;1.00
21189;DHT22;39071;52.420;20.896;2022-11-20T07:59:14;3.90;1.00
21189;DHT22;39071;52.420;20.896;2022-11-20T08:01:41;4.00;1.00
21189;DHT22;39071;52.420;20.896;2022-11-20T08:04:08;4.10;1.00
21189;DHT22;39071;52.420;20.896;2022-11-20T08:06:34;4.30;1.00
21189;DHT22;39071;52.420;20.896;2022-11-20T08:09:00;4.10;1.00
21189;DHT22;39071;52.420;20.896;2022-11-20T08:11:26;4.30;1.00
21189;DHT22;39071;52.420;20.896;2022-11-20T08:14:10;4.70;1.00
21189;DHT22;39071;52.420;20.896;2022-11-20T08:16:43;5.10;1.00
21189;DHT22;39071;52.420;20.896;2022-11-20T08:19:09;5.60;1.00
21189;DHT22;39071;52.420;20.896;2022-11-20T08:21:35;5.70;1.00
21189;DHT22;39071;52.420;20.896;2022-11-20T08:24:01;6.10;1.00
21189;DHT22;39071;52.420;20.896;2022-11-20T08:26:27;6.30;1.00
21189;DHT22;39071;52.420;20.896;2022-11-20T08:28:56;6.60;1.00
21189;DHT22;39071;52.420;20.896;2022-11-20T08:31:24;6.00;1.00
21189;DHT22;39071;52.420;20.896;2022-11-20T08:33:50;6.00;1.00
21189;DHT22;39071;52.420;20.896;2022-11-20T08:36:17;6.20;1.00
21189;DHT22;39071;52.420;20.896;2022-11-20T08:38:47;6.10;1.00
21189;DHT22;39071;52.420;20.896;2022-11-20T08:41:13;6.30;1.00
21189;DHT22;39071;52.420;20.896;2022-11-20T08:43:59;6.20;1.00
21189;DHT22;39071;52.420;20.896;2022-11-20T08:46:28;5.50;1.00
21189;DHT22;39071;52.420;20.896;2022-11-20T08:48:53;4.60;1.00
21189;DHT22;39071;52.420;20.896;2022-11-20T08:51:20;4.30;1.00
21189;DHT22;39071;52.420;20.896;2022-11-20T08:53:46;3.80;1.00
21189;DHT22;39071;52.420;20.896;2022-11-20T08:56:14;3.60;1.00
21189;DHT22;39071;52.420;20.896;2022-11-20T08:58:40;3.30;1.00
21189;DHT22;39071;52.420;20.896;2022-11-20T09:01:06;3.10;1.00
21189;DHT22;39071;52.420;20.896;2022-11-20T09:03:32;2.60;1.00
21189;DHT22;39071;52.420;20.896;2022-11-20T09:06:00;2.70;1.00
21189;DHT22;39071;52.420;20.896;2022-11-20T09:08:26;2.60;1.00
21189;DHT22;39071;52.420;20.896;2022-11-20T09:10:53;2.60;1.00
21189;DHT22;39071;52.420;20.896;2022-11-20T09:13:20;2.60;1.00
21189;DHT22;39071;52.420;20.896;2022-11-20T09:15:46;2.60;1.00
21189;DHT22;39071;52.420;20.896;2022-11-20T09:18:12;2.70;1.00
21189;DHT22;39071;52.420;20.896;2022-11-20T09:20:38;2.80;1.00
21189;DHT22;39071;52.420;20.896;2022-11-20T09:23:04;2.60;1.00
21189;DHT22;39071;52.420;20.896;2022-11-20T09:25:29;2.30;1.00
21189;DHT22;39071;52.420;20.896;2022-11-20T09:27:58;2.00;1.00
21189;DHT22;39071;52.420;20.896;2022-11-20T09:30:25;2.20;1.00
21189;DHT22;39071;52.420;20.896;2022-11-20T09:32:50;2.20;1.00
21189;DHT22;39071;52.420;20.896;2022-11-20T09:35:16;2.30;1.00
21189;DHT22;39071;52.420;20.896;2022-11-20T09:37:43;2.50;1.00
21189;DHT22;39071;52.420;20.896;2022-11-20T09:40:24;2.30;1.00
21189;DHT22;39071;52.420;20.896;2022-11-20T09:42:58;2.40;1.00
21189;DHT22;39071;52.420;20.896;2022-11-20T09:50:55;3.00;1.00
21189;DHT22;39071;52.420;20.896;2022-11-20T09:54:06;2.50;1.00
21189;DHT22;39071;52.420;20.896;2022-11-20T09:56:11;2.60;1.00
21189;DHT22;39071;52.420;20.896;2022-11-20T09:58:47;2.70;1.00
21189;DHT22;39071;52.420;20.896;2022-11-20T10:01:16;2.50;1.00
21189;DHT22;39071;52.420;20.896;2022-11-20T10:06:32;2.50;1.00
21189;DHT22;39071;52.420;20.896;2022-11-20T10:14:20;2.70;1.00
21189;DHT22;39071;52.420;20.896;2022-11-20T10:16:55;2.80;1.00
21189;DHT22;39071;52.420;20.896;2022-11-20T10:30:08;2.50;1.00
21189;DHT22;39071;52.420;20.896;2022-11-20T10:32:43;2.60;1.00
21189;DHT22;39071;52.420;20.896;2022-11-20T10:38:03;2.90;1.00
21189;DHT22;39071;52.420;20.896;2022-11-20T10:40:35;3.00;1.00
21189;DHT22;39071;52.420;20.896;2022-11-20T10:43:26;3.30;1.00
21189;DHT22;39071;52.420;20.896;2022-11-20T10:45:58;3.30;1.00
21189;DHT22;39071;52.420;20.896;2022-11-20T10:48:27;3.70;1.00
21189;DHT22;39071;52.420;20.896;2022-11-20T10:53:36;3.70;1.00
21189;DHT22;39071;52.420;20.896;2022-11-20T10:56:16;4.00;1.00
21189;DHT22;39071;52.420;20.896;2022-11-20T11:01:19;4.00;1.00
21189;DHT22;39071;52.420;20.896;2022-11-20T11:03:52;4.30;1.00
21189;DHT22;39071;52.420;20.896;2022-11-20T11:06:40;4.40;1.00
21189;DHT22;39071;52.420;20.896;2022-11-20T11:09:17;4.50;1.00
21189;DHT22;39071;52.420;20.896;2022-11-20T11:11:45;4.70;1.00
21189;DHT22;39071;52.420;20.896;2022-11-20T11:14:13;4.60;1.00
21189;DHT22;39071;52.420;20.896;2022-11-20T11:16:56;4.60;1.00
21189;DHT22;39071;52.420;20.896;2022-11-20T11:19:22;4.60;1.00
21189;DHT22;39071;52.420;20.896;2022-11-20T11:21:53;4.60;1.00
21189;DHT22;39071;52.420;20.896;2022-11-20T11:24:25;4.60;1.00
21189;DHT22;39071;52.420;20.896;2022-11-20T11:26:57;4.60;1.00
21189;DHT22;39071;52.420;20.896;2022-11-20T11:29:23;4.60;1.00
21189;DHT22;39071;52.420;20.896;2022-11-20T11:32:12;4.50;1.00
21189;DHT22;39071;52.420;20.896;2022-11-20T11:34:39;4.30;1.00
21189;DHT22;39071;52.420;20.896;2022-11-20T11:37:05;4.20;1.00
21189;DHT22;39071;52.420;20.896;2022-11-20T11:39:39;4.10;1.00
21189;DHT22;39071;52.420;20.896;2022-11-20T11:42:13;4.20;1.00
21189;DHT22;39071;52.420;20.896;2022-11-20T11:44:45;4.30;1.00
21189;DHT22;39071;52.420;20.896;2022-11-20T11:52:51;4.50;1.00
21189;DHT22;39071;52.420;20.896;2022-11-20T11:58:34;4.50;1.00
21189;DHT22;39071;52.420;20.896;2022-11-20T12:04:25;4.70;1.00
21189;DHT22;39071;52.420;20.896;2022-11-20T12:07:02;4.80;1.00
21189;DHT22;39071;52.420;20.896;2022-11-20T12:09:37;4.70;1.00
21189;DHT22;39071;52.420;20.896;2022-11-20T12:12:10;4.50;1.00
21189;DHT22;39071;52.420;20.896;2022-11-20T12:14:43;6.50;1.00
21189;DHT22;39071;52.420;20.896;2022-11-20T12:17:12;4.20;1.00
21189;DHT22;39071;52.420;20.896;2022-11-20T12:19:38;4.30;1.00
21189;DHT22;39071;52.420;20.896;2022-11-20T12:27:44;4.40;1.00
21189;DHT22;39071;52.420;20.896;2022-11-20T12:30:19;4.50;1.00
21189;DHT22;39071;52.420;20.896;2022-11-20T12:50:31;4.10;1.00
21189;DHT22;39071;52.420;20.896;2022-11-20T12:58:35;3.80;1.00
21189;DHT22;39071;52.420;20.896;2022-11-20T13:01:24;3.70;1.00
21189;DHT22;39071;52.420;20.896;2022-11-20T13:06:52;3.70;1.00
21189;DHT22;39071;52.420;20.896;2022-11-20T13:09:20;3.50;1.00
21189;DHT22;39071;52.420;20.896;2022-11-20T13:12:12;3.50;1.00
21189;DHT22;39071;52.420;20.896;2022-11-20T13:14:56;3.30;1.00
21189;DHT22;39071;52.420;20.896;2022-11-20T13:20:06;3.50;1.00
21189;DHT22;39071;52.420;20.896;2022-11-20T13:22:54;3.60;1.00
21189;DHT22;39071;52.420;20.896;2022-11-20T13:25:33;3.50;1.00
21189;DHT22;39071;52.420;20.896;2022-11-20T13:28:05;3.60;1.00
21189;DHT22;39071;52.420;20.896;2022-11-20T13:30:51;3.60;1.00
21189;DHT22;39071;52.420;20.896;2022-11-20T13:36:23;3.60;1.00
21189;DHT22;39071;52.420;20.896;2022-11-20T13:38:54;3.50;1.00
21189;DHT22;39071;52.420;20.896;2022-11-20T13:41:31;3.40;1.00
21189;DHT22;39071;52.420;20.896;2022-11-20T13:46:42;3.30;1.00
21189;DHT22;39071;52.420;20.896;2022-11-20T13:49:16;3.30;1.00
21189;DHT22;39071;52.420;20.896;2022-11-20T13:59:59;3.40;1.00
21189;DHT22;39071;52.420;20.896;2022-11-20T14:02:29;3.40;1.00
21189;DHT22;39071;52.420;20.896;2022-11-20T14:04:58;3.40;1.00
21189;DHT22;39071;52.420;20.896;2022-11-20T14:07:43;3.30;1.00
21189;DHT22;39071;52.420;20.896;2022-11-20T14:10:38;3.20;1.00
21189;DHT22;39071;52.420;20.896;2022-11-20T14:13:20;3.20;1.00
21189;DHT22;39071;52.420;20.896;2022-11-20T14:15:46;3.20;1.00
21189;DHT22;39071;52.420;20.896;2022-11-20T14:18:20;3.30;1.00
21189;DHT22;39071;52.420;20.896;2022-11-20T14:20:47;3.30;1.00
21189;DHT22;39071;52.420;20.896;2022-11-20T14:23:23;3.30;1.00
21189;DHT22;39071;52.420;20.896;2022-11-20T14:25:49;3.30;1.00
21189;DHT22;39071;52.420;20.896;2022-11-20T14:28:29;3.20;1.00
21189;DHT22;39071;52.420;20.896;2022-11-20T14:30:56;3.20;1.00
21189;DHT22;39071;52.420;20.896;2022-11-20T14:33:23;3.20;1.00
21189;DHT22;39071;52.420;20.896;2022-11-20T14:35:54;3.60;1.00
21189;DHT22;39071;52.420;20.896;2022-11-20T14:38:27;3.20;1.00
21189;DHT22;39071;52.420;20.896;2022-11-20T14:40:53;3.10;1.00
21189;DHT22;39071;52.420;20.896;2022-11-20T14:43:25;3.00;1.00
21189;DHT22;39071;52.420;20.896;2022-11-20T14:46:07;2.70;1.00
21189;DHT22;39071;52.420;20.896;2022-11-20T14:48:44;2.80;1.00
21189;DHT22;39071;52.420;20.896;2022-11-20T14:51:31;2.60;1.00
21189;DHT22;39071;52.420;20.896;2022-11-20T14:56:36;2.50;1.00
21189;DHT22;39071;52.420;20.896;2022-11-20T14:59:02;2.60;1.00
21189;DHT22;39071;52.420;20.896;2022-11-20T15:01:29;2.60;1.00
21189;DHT22;39071;52.420;20.896;2022-11-20T15:04:07;2.50;1.00
21189;DHT22;39071;52.420;20.896;2022-11-20T15:06:33;2.30;1.00
21189;DHT22;39071;52.420;20.896;2022-11-20T15:08:59;2.30;1.00
21189;DHT22;39071;52.420;20.896;2022-11-20T15:11:30;2.30;1.00
21189;DHT22;39071;52.420;20.896;2022-11-20T15:13:56;2.20;1.00
21189;DHT22;39071;52.420;20.896;2022-11-20T15:16:23;2.20;1.00
21189;DHT22;39071;52.420;20.896;2022-11-20T15:18:50;2.30;1.00
21189;DHT22;39071;52.420;20.896;2022-11-20T15:21:19;2.30;1.00
21189;DHT22;39071;52.420;20.896;2022-11-20T15:23:46;2.30;1.00
21189;DHT22;39071;52.420;20.896;2022-11-20T15:26:15;2.40;1.00
21189;DHT22;39071;52.420;20.896;2022-11-20T15:28:45;2.10;1.00
21189;DHT22;39071;52.420;20.896;2022-11-20T15:31:14;2.10;1.00
21189;DHT22;39071;52.420;20.896;2022-11-20T15:33:40;2.20;1.00
21189;DHT22;39071;52.420;20.896;2022-11-20T15:36:06;2.20;1.00
21189;DHT22;39071;52.420;20.896;2022-11-20T15:38:32;2.20;1.00
21189;DHT22;39071;52.420;20.896;2022-11-20T15:40:58;2.30;1.00
21189;DHT22;39071;52.420;20.896;2022-11-20T15:43:23;2.20;1.00
21189;DHT22;39071;52.420;20.896;2022-11-20T15:48:34;2.50;1.00
21189;DHT22;39071;52.420;20.896;2022-11-20T15:53:41;2.00;1.00
21189;DHT22;39071;52.420;20.896;2022-11-20T15:56:14;2.00;1.00
21189;DHT22;39071;52.420;20.896;2022-11-20T15:58:40;2.10;1.00
21189;DHT22;39071;52.420;20.896;2022-11-20T16:01:10;2.10;1.00
21189;DHT22;39071;52.420;20.896;2022-11-20T16:03:37;2.00;1.00
21189;DHT22;39071;52.420;20.896;2022-11-20T16:06:02;2.10;1.00
21189;DHT22;39071;52.420;20.896;2022-11-20T16:08:28;2.00;1.00
21189;DHT22;39071;52.420;20.896;2022-11-20T16:10:54;3.00;1.00
21189;DHT22;39071;52.420;20.896;2022-11-20T16:13:19;1.90;1.00
21189;DHT22;39071;52.420;20.896;2022-11-20T16:16:06;1.90;1.00
21189;DHT22;39071;52.420;20.896;2022-11-20T16:18:34;1.90;1.00
21189;DHT22;39071;52.420;20.896;2022-11-20T16:21:00;1.90;1.00
21189;DHT22;39071;52.420;20.896;2022-11-20T16:23:26;1.60;1.00
21189;DHT22;39071;52.420;20.896;2022-11-20T16:25:52;1.50;1.00
21189;DHT22;39071;52.420;20.896;2022-11-20T16:28:18;1.60;1.00
21189;DHT22;39071;52.420;20.896;2022-11-20T16:30:45;1.40;1.00
21189;DHT22;39071;52.420;20.896;2022-11-20T16:33:13;1.30;6.70
21189;DHT22;39071;52.420;20.896;2022-11-20T16:35:39;1.40;18.30
21189;DHT22;39071;52.420;20.896;2022-11-20T16:38:05;1.20;20.00
21189;DHT22;39071;52.420;20.896;2022-11-20T16:40:31;1.20;23.20
21189;DHT22;39071;52.420;20.896;2022-11-20T16:42:57;1.20;29.60
21189;DHT22;39071;52.420;20.896;2022-11-20T16:45:23;1.10;62.60
21189;DHT22;39071;52.420;20.896;2022-11-20T16:47:49;0.90;44.00
21189;DHT22;39071;52.420;20.896;2022-11-20T16:50:14;1.00;60.90
21189;DHT22;39071;52.420;20.896;2022-11-20T16:52:40;1.00;57.40
21189;DHT22;39071;52.420;20.896;2022-11-20T16:55:06;1.10;60.50
21189;DHT22;39071;52.420;20.896;2022-11-20T16:57:32;1.00;55.90
21189;DHT22;39071;52.420;20.896;2022-11-20T17:00:00;0.80;63.90
21189;DHT22;39071;52.420;20.896;2022-11-20T17:02:26;0.60;71.30
21189;DHT22;39071;52.420;20.896;2022-11-20T17:04:52;0.70;90.40
21189;DHT22;39071;52.420;20.896;2022-11-20T17:07:18;0.70;92.60
21189;DHT22;39071;52.420;20.896;2022-11-20T17:09:44;0.80;95.30
21189;DHT22;39071;52.420;20.896;2022-11-20T17:12:09;0.90;93.20
21189;DHT22;39071;52.420;20.896;2022-11-20T17:14:35;0.80;93.10
21189;DHT22;39071;52.420;20.896;2022-11-20T17:17:01;0.90;91.30
21189;DHT22;39071;52.420;20.896;2022-11-20T17:19:27;0.80;84.10
21189;DHT22;39071;52.420;20.896;2022-11-20T17:21:52;0.80;93.30
21189;DHT22;39071;52.420;20.896;2022-11-20T17:24:18;0.80;92.00
21189;DHT22;39071;52.420;20.896;2022-11-20T17:26:46;0.90;95.00